Latest Weather Observations for Bendigo

IDV60801

Issued at 7:05 pm EDT Wednesday 22 October 2014 (issued every 30 minutes, with the page automatically refreshed every 10 minutes)

About weather observations | Map of weather stations | Latest weather observations for VIC | Other Formats
Station Details ID: 081123 Name: BENDIGO AIRPORT Lat: -36.74 Lon: 144.33 Height: 208.0 m
Data from the previous 72 hours. | See also: Recent months at Bendigo
Date/Time
EDT
Temp
°C
App
Temp
°C
Dew
Point
Rel
Hum
%
Delta-T
°C
Wind Press
QNH
hPa
Press
MSL
hPa
Rain
since 9 am
mm
Dir
 
Spd
km/h
Gust
km/h
Spd
kts
Gust
kts
22/07:00pm 26.2 25.2 12.3 42 8.1 E 9 17 5 9 1015.7 1015.7 0.0
22/06:30pm 27.3 26.9 12.5 40 8.7 E 6 13 3 7 1015.6 1015.5 0.0
22/06:00pm 27.0 24.0 11.9 39 8.8 E 19 28 10 15 1015.3 1015.2 0.0
22/05:30pm 28.0 25.2 11.5 35 9.6 NE 17 20 9 11 1015.8 1015.8 0.0
22/05:00pm 28.1 25.5 12.0 36 9.4 NE 17 26 9 14 1016.1 1016.1 0.0
22/04:30pm 27.7 25.0 11.7 37 9.3 NE 17 26 9 14 1016.4 1016.4 0.0
22/04:00pm 27.5 25.0 11.1 36 9.4 NNE 15 20 8 11 1017.0 1016.9 0.0
22/03:30pm 27.4 25.2 12.2 39 8.9 NE 15 22 8 12 1017.3 1017.2 0.0
22/03:00pm 27.0 24.5 11.1 37 9.1 NNE 15 20 8 11 1017.7 1017.6 0.0
22/02:30pm 27.4 25.0 11.4 37 9.2 ENE 15 20 8 11 1017.9 1017.8 0.0
22/02:00pm 26.7 23.9 11.2 38 8.9 NE 17 28 9 15 1018.3 1018.2 0.0
22/01:30pm 26.3 23.5 11.2 38 8.6 NE 17 26 9 14 1018.6 1018.5 0.0
22/01:00pm 25.3 22.6 11.8 43 7.7 NE 17 24 9 13 1018.8 1018.7 0.0
22/12:30pm 24.1 20.9 11.1 44 7.3 NE 19 26 10 14 1019.3 1019.2 0.0
22/12:00pm 23.1 20.8 11.8 49 6.4 ENE 15 24 8 13 1019.9 1019.9 0.0
22/11:30am 22.8 20.2 12.1 51 6.1 E 17 24 9 13 1020.5 1020.5 0.0
22/11:00am 21.4 18.7 11.7 54 5.4 E 17 28 9 15 1020.7 1020.7 0.0
22/10:30am 20.3 17.5 11.2 56 5.0 E 17 24 9 13 1020.9 1020.9 0.0
22/10:00am 19.2 16.6 10.7 58 4.6 E 15 24 8 13 1021.4 1021.4 0.0
22/09:30am 18.2 15.7 11.0 63 3.9 ENE 15 22 8 12 1021.5 1021.5 0.0
22/09:00am 17.2 14.6 10.8 66 3.5 E 15 22 8 12 1021.7 1021.7 0.0
22/08:30am 16.0 13.4 10.7 71 2.8 E 15 22 8 12 1021.9 1021.8 0.0
22/08:00am 14.8 12.9 10.4 75 2.3 ESE 11 17 6 9 1021.9 1021.8 0.0
22/07:30am 14.2 12.2 10.2 77 2.1 ESE 11 15 6 8 1021.9 1021.8 0.0
22/07:00am 12.1 10.4 10.0 87 1.1 SSE 9 11 5 6 1021.7 1021.7 0.0
22/06:30am 11.5 9.4 9.6 88 1.0 SE 11 13 6 7 1021.7 1021.7 0.0
22/06:00am 12.2 10.5 9.8 85 1.2 SE 9 13 5 7 1021.4 1021.4 0.0
22/05:30am 11.3 9.4 8.9 85 1.2 SE 9 9 5 5 1021.3 1021.3 0.0
22/05:00am 11.1 9.2 9.0 87 1.1 SE 9 13 5 7 1021.2 1021.2 0.0
22/04:30am 11.9 10.1 9.3 84 1.3 SE 9 11 5 6 1021.1 1021.1 0.0
22/04:00am 13.1 11.0 9.7 80 1.8 SE 11 13 6 7 1021.1 1021.1 0.0
22/03:30am 12.6 10.7 9.2 80 1.7 SE 9 11 5 6 1021.3 1021.3 0.0
22/03:00am 12.5 10.7 9.3 81 1.6 SE 9 11 5 6 1021.4 1021.4 0.0
22/02:30am 12.9 10.7 9.5 80 1.7 SSE 11 13 6 7 1021.7 1021.7 0.0
22/02:00am 12.5 10.7 9.5 82 1.5 SE 9 11 5 6 1021.9 1021.8 0.0
22/01:30am 13.6 11.8 9.3 75 2.2 SE 9 11 5 6 1022.1 1022.0 0.0
22/01:00am 15.1 12.8 10.5 74 2.4 SSE 13 20 7 11 1022.2 1022.1 0.0
22/12:30am 15.9 14.1 10.7 71 2.8 SSE 11 15 6 8 1022.5 1022.4 0.0
22/12:00am 14.7 12.3 10.1 74 2.4 SSE 13 13 7 7 1022.7 1022.6 0.0
 
Date/Time
EDT
Temp
°C
App
Temp
°C
Dew
Point
Rel
Hum
%
Delta-T
°C
Wind Press
QNH
hPa
Press
MSL
hPa
Rain
since 9 am
mm
Dir
 
Spd
km/h
Gust
km/h
Spd
kts
Gust
kts
21/11:30pm 14.6 12.8 9.6 72 2.6 SSE 9 11 5 6 1022.9 1022.8 0.0
21/11:00pm 15.3 14.0 9.9 70 2.8 SSE 7 9 4 5 1023.0 1022.9 0.0
21/10:30pm 13.7 13.5 9.2 74 2.3 CALM 0 0 0 0 1023.3 1023.2 0.0
21/10:00pm 15.3 15.3 9.9 70 2.8 CALM 0 0 0 0 1023.5 1023.4 0.0
21/09:30pm 16.2 16.3 10.1 67 3.2 CALM 0 0 0 0 1023.5 1023.4 0.0
21/09:00pm 17.6 17.8 10.5 63 3.8 CALM 0 0 0 0 1023.2 1023.1 0.0
21/08:30pm 18.8 18.9 10.1 57 4.7 CALM 0 0 0 0 1022.9 1022.8 0.0
21/08:00pm 21.7 21.9 10.5 49 6.2 CALM 0 0 0 0 1022.8 1022.7 0.0
21/07:30pm 23.5 22.4 10.6 44 7.2 E 7 11 4 6 1022.7 1022.6 0.0
21/07:00pm 24.3 22.8 10.6 42 7.6 NE 9 13 5 7 1022.6 1022.5 0.0
21/06:30pm 25.0 22.6 10.1 39 8.3 NE 13 19 7 10 1022.6 1022.5 0.0
21/06:00pm 25.2 23.2 10.3 39 8.3 E 11 15 6 8 1022.7 1022.6 0.0
21/05:30pm 25.3 22.9 10.0 38 8.5 NE 13 19 7 10 1022.6 1022.5 0.0
21/05:00pm 25.3 21.7 10.0 38 8.5 NE 19 22 10 12 1022.6 1022.5 0.0
21/04:30pm 25.6 23.1 9.8 37 8.8 NNE 13 20 7 11 1022.9 1022.8 0.0
21/04:00pm 26.1 24.5 10.3 37 8.9 N 9 20 5 11 1023.0 1022.9 0.0
21/03:30pm 25.7 23.3 9.9 37 8.8 NE 13 22 7 12 1023.4 1023.3 0.0
21/03:00pm 25.9 23.6 10.5 38 8.6 ENE 13 24 7 13 1023.8 1023.7 0.0
21/02:30pm 25.1 21.4 10.2 39 8.3 NNE 20 28 11 15 1024.3 1024.3 0.0
21/02:00pm 23.8 22.3 10.5 43 7.4 E 9 20 5 11 1024.8 1024.8 0.0
21/01:30pm 23.3 20.3 10.7 45 7.0 NNE 17 26 9 14 1025.2 1025.2 0.0
21/01:00pm 22.8 19.9 10.9 47 6.6 NE 17 24 9 13 1025.5 1025.5 0.0
21/12:30pm 21.8 18.9 10.9 50 6.1 ENE 17 26 9 14 1026.0 1026.0 0.0
21/12:00pm 21.0 18.0 10.5 51 5.7 ENE 17 26 9 14 1026.3 1026.3 0.0
21/11:30am 20.1 17.4 10.5 54 5.3 ENE 15 22 8 12 1026.7 1026.7 0.0
21/11:00am 19.3 15.7 10.0 55 5.0 E 19 30 10 16 1026.8 1026.8 0.0
21/10:30am 18.3 14.6 9.6 57 4.6 NNE 19 28 10 15 1027.1 1027.0 0.0
21/10:00am 17.1 13.2 9.3 60 4.1 NE 20 30 11 16 1027.2 1027.1 0.0
21/09:30am 16.7 12.9 9.1 61 4.0 ENE 19 28 10 15 1027.2 1027.1 0.0
21/09:00am 15.4 11.9 8.9 65 3.3 ENE 17 33 9 18 1027.1 1027.0 0.0
21/08:30am 14.1 10.9 8.3 68 2.9 ENE 15 24 8 13 1027.1 1027.0 0.0
21/08:00am 13.2 10.8 8.5 73 2.4 ESE 11 17 6 9 1027.0 1026.9 0.0
21/07:30am 12.1 9.9 7.8 75 2.1 ESE 9 13 5 7 1026.6 1026.6 0.0
21/07:00am 9.9 7.9 7.2 83 1.3 SE 7 9 4 5 1026.4 1026.4 0.0
21/06:30am 10.0 7.3 7.3 83 1.3 ESE 11 15 6 8 1026.0 1026.0 0.0
21/06:00am 8.5 5.5 5.8 83 1.2 SE 11 17 6 9 1025.8 1025.8 0.0
21/05:30am 8.9 5.4 5.6 80 1.5 SE 13 17 7 9 1025.7 1025.7 0.0
21/05:00am 9.1 5.6 5.3 77 1.7 SE 13 22 7 12 1025.3 1025.3 0.0
21/04:30am 8.6 4.5 4.6 76 1.8 SSE 15 19 8 10 1025.0 1025.0 0.0
21/04:00am 9.2 5.1 4.4 72 2.1 SSE 15 20 8 11 1024.8 1024.8 0.0
21/03:30am 9.1 5.4 4.3 72 2.1 SSE 13 19 7 10 1024.8 1024.8 0.0
21/03:00am 10.4 5.9 4.3 66 2.7 SE 17 24 9 13 1024.8 1024.8 0.0
21/02:30am 10.4 5.0 4.5 67 2.7 SSE 22 28 12 15 1024.5 1024.5 0.0
21/02:00am 10.2 4.5 5.0 70 2.4 SSE 24 28 13 15 1024.6 1024.6 0.0
21/01:30am 10.1 4.5 5.3 72 2.2 SSE 24 32 13 17 1024.9 1024.9 0.0
21/01:00am 10.3 5.1 5.7 73 2.1 SSE 22 32 12 17 1025.1 1025.1 0.0
21/12:30am 10.8 5.7 6.2 73 2.2 SSE 22 28 12 15 1025.1 1025.1 0.0
21/12:00am 11.0 6.6 6.4 73 2.2 SSE 19 24 10 13 1025.4 1025.4 0.0
 
Date/Time
EDT
Temp
°C
App
Temp
°C
Dew
Point
Rel
Hum
%
Delta-T
°C
Wind Press
QNH
hPa
Press
MSL
hPa
Rain
since 9 am
mm
Dir
 
Spd
km/h
Gust
km/h
Spd
kts
Gust
kts
20/11:30pm 11.2 7.2 6.5 73 2.2 SSE 17 24 9 13 1025.6 1025.6 0.0
20/11:00pm 11.6 7.7 6.9 73 2.3 SSE 17 24 9 13 1025.5 1025.5 0.0
20/10:30pm 12.5 8.7 7.4 71 2.5 SSE 17 24 9 13 1025.5 1025.5 0.0
20/10:00pm 12.8 8.9 7.0 68 2.8 S 17 28 9 15 1025.7 1025.7 0.0
20/09:30pm 13.4 8.5 7.0 65 3.1 SSE 22 28 12 15 1025.6 1025.6 0.0
20/09:00pm 14.2 10.2 6.6 60 3.7 SSE 17 26 9 14 1025.5 1025.5 0.0
20/08:30pm 14.9 10.8 6.0 55 4.3 S 17 26 9 14 1025.2 1025.2 0.0
20/08:00pm 16.0 11.3 5.3 49 5.1 SSE 19 26 10 14 1025.0 1025.0 0.0
20/07:30pm 17.3 12.5 4.9 44 6.0 S 19 28 10 15 1024.8 1024.8 0.0
20/07:00pm 19.1 14.0 4.1 37 7.2 SSE 20 30 11 16 1024.6 1024.6 0.0
20/06:30pm 20.4 14.5 4.0 34 7.9 SSE 24 32 13 17 1024.5 1024.5 0.0
20/06:00pm 21.3 16.2 4.0 32 8.4 S 20 28 11 15 1024.4 1024.4 0.0
20/05:30pm 21.8 16.4 4.4 32 8.6 S 22 28 12 15 1024.3 1024.3 0.0
20/05:00pm 22.5 17.4 4.1 30 9.0 SSE 20 28 11 15 1024.3 1024.3 0.0
20/04:30pm 22.9 17.7 2.4 26 9.8 SSE 19 26 10 14 1024.3 1024.3 0.0
20/04:00pm 22.6 17.2 1.0 24 10.0 SE 19 28 10 15 1024.4 1024.4 0.0
20/03:30pm 22.9 17.6 -0.6 21 10.6 S 17 24 9 13 1024.6 1024.6 0.0
20/03:00pm 22.6 17.5 1.0 24 10.0 SE 17 26 9 14 1024.8 1024.8 0.0
20/02:30pm 22.1 17.1 1.2 25 9.7 SSE 17 24 9 13 1025.2 1025.2 0.0
20/02:00pm 21.8 16.9 2.0 27 9.3 SE 17 26 9 14 1025.5 1025.5 0.0
20/01:30pm 21.0 16.4 1.3 27 9.1 ESE 15 30 8 16 1025.9 1025.9 0.0
20/01:00pm 20.5 14.6 1.9 29 8.6 S 22 32 12 17 1026.2 1026.2 0.0
20/12:30pm 20.2 14.7 1.6 29 8.6 SSE 20 30 11 16 1026.5 1026.5 0.0
20/12:00pm 18.1 12.8 2.0 34 7.3 SSE 19 28 10 15 1027.0 1026.9 0.0
20/11:30am 16.9 11.0 1.8 36 6.8 SE 22 30 12 16 1027.4 1027.3 0.0
20/11:00am 16.4 10.6 2.4 39 6.3 SSE 22 30 12 16 1027.6 1027.5 0.0
20/10:30am 15.0 9.3 2.9 44 5.5 S 22 32 12 17 1027.5 1027.4 0.0
20/10:00am 14.1 8.0 2.7 46 5.1 SSE 24 32 13 17 1027.6 1027.5 0.0
20/09:30am 13.0 7.0 3.4 52 4.3 SSE 24 33 13 18 1027.3 1027.2 0.0
20/09:00am 12.0 6.1 3.8 57 3.7 SSE 24 33 13 18 1027.2 1027.1 0.0
20/08:30am 11.7 6.7 4.7 62 3.2 SSE 20 32 11 17 1027.1 1027.0 0.0
20/08:00am 10.6 5.2 4.7 67 2.7 SE 22 35 12 19 1026.5 1026.5 0.0
20/07:30am 10.2 6.0 5.6 73 2.1 SE 17 24 9 13 1026.3 1026.3 0.0
20/07:00am 9.5 5.7 5.9 78 1.7 SE 15 20 8 11 1025.9 1025.9 0.0
20/06:30am 9.2 5.8 6.1 81 1.4 SSE 13 19 7 10 1025.7 1025.7 0.0
20/06:00am 9.4 6.1 6.5 82 1.4 SSE 13 20 7 11 1025.3 1025.3 0.0
20/05:30am 9.7 6.1 6.8 82 1.4 SE 15 22 8 12 1025.1 1025.1 0.0
20/05:00am 10.0 6.9 7.1 82 1.4 SE 13 20 7 11 1024.9 1024.9 0.0
20/04:30am 10.1 6.2 7.0 81 1.5 SSE 17 22 9 12 1024.9 1024.9 0.0
20/04:00am 10.3 6.0 7.0 80 1.6 SSE 19 26 10 14 1024.8 1024.8 0.0
20/03:30am 10.8 6.4 7.5 80 1.6 SSE 20 33 11 18 1024.9 1024.9 0.0
20/03:00am 11.3 7.2 8.0 80 1.6 SSE 19 30 10 16 1024.8 1024.8 0.0
20/02:30am 11.9 6.9 8.2 78 1.8 SSE 24 39 13 21 1024.9 1024.9 0.0
20/02:00am 12.1 8.6 8.8 80 1.7 S 17 24 9 13 1024.6 1024.6 0.0
20/01:30am 12.4 8.9 8.9 79 1.8 SSE 17 24 9 13 1025.0 1025.0 0.0
20/01:00am 12.4 8.6 8.9 79 1.8 SSE 19 26 10 14 1024.8 1024.8 0.0
20/12:30am 12.3 8.3 9.0 80 1.7 S 20 30 11 16 1024.9 1024.9 0.0
20/12:00am 12.8 9.5 9.4 80 1.7 S 17 22 9 12 1024.9 1024.9 0.0
 
Date/Time
EDT
Temp
°C
App
Temp
°C
Dew
Point
Rel
Hum
%
Delta-T
°C
Wind Press
QNH
hPa
Press
MSL
hPa
Rain
since 9 am
mm
Dir
 
Spd
km/h
Gust
km/h
Spd
kts
Gust
kts
19/11:30pm 13.4 10.6 10.0 80 1.8 S 15 26 8 14 1024.7 1024.7 0.0
19/11:00pm 14.0 10.9 10.2 78 2.0 SE 17 24 9 13 1024.4 1024.4 0.0
19/10:30pm 14.4 9.2 10.2 76 2.2 S 28 39 15 21 1024.4 1024.4 0.0
19/10:00pm 14.8 10.8 10.6 76 2.2 SSE 22 37 12 20 1024.3 1024.3 0.0
19/09:30pm 15.8 11.2 11.2 74 2.5 SSE 26 32 14 17 1024.2 1024.2 0.0
19/09:00pm 17.0 11.8 11.5 70 3.0 SSE 30 43 16 23 1023.3 1023.2 0.0
19/08:30pm 19.8 16.2 11.8 60 4.5 SE 22 33 12 18 1022.1 1022.0 0.0
19/08:00pm 23.9 20.3 8.3 37 8.4 S 17 24 9 13 1021.0 1021.0 0.0
19/07:30pm 26.0 21.4 6.6 29 10.2 SSW 20 33 11 18 1020.0 1020.0 0.0

Other Formats:

Comma delimited format used in spreadsheet applications
http://www.bom.gov.au/fwo/IDV60801/IDV60801.94855.axf

JavaScript Object Notation format (JSON) in row-major order
http://www.bom.gov.au/fwo/IDV60801/IDV60801.94855.json